Aeroporto :
LOGIN :

Iscrizione | Disclaimer

   EN    FR    IT 

 










Sommario :    VFR   VFR Marginale   IFR   IFR Intensivo   IFR Molto Intensivo
Visibilità : 
Base nubi : 
>= 8 km
>= 3000ft
5 / 8 km
1000 / 3000 ft
1500m / 5 km
500 / 1000 ft
800 / 1500m
200 / 500 ft
< 800m
< 200 ft
Simboli :   Temporali  Nebbia  Neve Forte  Precipitazioni Forti  Vento > 20 kt
SIGMETs :   Varie  Temporali  Ghiacco  Turbolenza  Onda orograficha  Ceneri Vulcaniche






- Altitudine del aeroporto : 1470 ft
- Codice IATA : KLU


LOWK - Klagenfurt

ULTIMO METAR :
  • 031250Z 22006KT 160V300 9999 FEW070 25/06 Q1006 NOSIG

METARs OBSOLETI :
  • 031220Z 22008KT 180V300 9999 FEW070 25/05 Q1006 NOSIG
  • 031150Z 22005KT 180V350 9999 FEW060TCU 24/07 Q1007 NOSIG
  • 031120Z 27004KT 190V330 9999 FEW060 FEW060TCU 23/07 Q1008 NOSIG
  • 031050Z 25005KT 190V320 9999 FEW060 22/07 Q1008 NOSIG
  • 031020Z 24005KT 170V310 9999 FEW060 21/07 Q1008 NOSIG

TAF TAF LOWK
Valido dal 03 a 12 ore il 04 a 12 ore UTC


031115Z 0312/0412 VRB04KT 9999 FEW060 TX23/0313Z TN12/0403Z
PROB30
TEMPO 0314/0318 VRB10G20KT TSRA FEW050CB BKN070



MetMap, La meteo Aeronautica in un colpo d'occhio ! - Copyright ORBIFLY Dicembre 2007 - Disclaimer

ORBIFLY MET'MAP TEAM :

Programmazione e sviluppo : Alexandra Zaïnal
Concezione : Baudouin d'Aumeries
Aiuto per la programmazione : Marc-Olivier Méhu
Supporto tecnico e logistico : Manuel Goepfert
Aiuto per la traduzione : Arnaldo La Scala

Contatto : metmap@orbifly.com




FONTI E CREDITI :

   NOAA